createdAt,value
2023-02-13T00:01:38.246Z,19.92
2023-02-13T00:04:07.219Z,23.08
2023-02-13T00:06:36.163Z,20.27
2023-02-13T00:09:07.279Z,24.30
2023-02-13T00:11:37.866Z,27.50
2023-02-13T00:14:07.000Z,20.08
2023-02-13T00:16:36.039Z,24.60
2023-02-13T00:19:05.391Z,20.65
2023-02-13T00:21:34.316Z,21.42
2023-02-13T00:24:03.243Z,23.65
2023-02-13T00:26:32.460Z,28.02
2023-02-13T00:29:02.811Z,23.67
2023-02-13T00:31:31.843Z,29.80
2023-02-13T00:34:00.927Z,25.25
2023-02-13T00:36:30.191Z,20.83
2023-02-13T00:38:59.160Z,22.08
2023-02-13T00:41:28.236Z,19.15
2023-02-13T00:43:57.253Z,20.92
2023-02-13T00:46:27.852Z,25.05
2023-02-13T00:48:57.010Z,17.23
2023-02-13T00:51:25.978Z,21.50
2023-02-13T00:53:54.995Z,18.92
2023-02-13T00:56:24.998Z,15.95
2023-02-13T00:58:54.012Z,16.65
2023-02-13T01:01:23.087Z,15.13
2023-02-13T01:03:53.518Z,16.25
2023-02-13T01:06:23.467Z,16.63
2023-02-13T01:08:52.423Z,23.77
2023-02-13T01:11:21.486Z,17.60
2023-02-13T01:13:50.458Z,18.00
2023-02-13T01:16:22.404Z,17.70
2023-02-13T01:18:51.460Z,20.80
2023-02-13T01:21:24.505Z,19.30
2023-02-13T01:23:55.481Z,19.30
2023-02-13T01:26:25.532Z,16.55
2023-02-13T01:28:55.869Z,22.23
2023-02-13T01:31:25.831Z,22.83
2023-02-13T01:33:58.838Z,21.95
2023-02-13T01:36:29.293Z,22.23
2023-02-13T01:39:00.293Z,22.80
2023-02-13T01:41:30.099Z,17.38
2023-02-13T01:44:02.138Z,18.45
2023-02-13T01:46:37.159Z,16.10
2023-02-13T01:49:13.690Z,14.70
2023-02-13T01:51:44.861Z,16.20
2023-02-13T01:54:18.403Z,13.43
2023-02-13T01:56:53.236Z,18.42
2023-02-13T01:59:29.896Z,16.25
2023-02-13T02:02:00.948Z,13.38
2023-02-13T02:04:33.601Z,13.30
2023-02-13T02:07:13.659Z,16.17
2023-02-13T02:09:46.479Z,14.18
2023-02-13T02:12:25.530Z,16.73
2023-02-13T02:14:56.565Z,16.95
2023-02-13T02:17:28.427Z,17.70
2023-02-13T02:20:11.640Z,18.55
2023-02-13T02:23:31.736Z,20.00
2023-02-13T02:26:46.188Z,20.63
2023-02-13T02:30:02.416Z,16.88
2023-02-13T02:32:58.015Z,21.10
2023-02-13T02:35:45.671Z,18.75
2023-02-13T02:38:31.328Z,20.15
2023-02-13T02:41:08.327Z,16.75
2023-02-13T02:43:56.482Z,16.92
2023-02-13T02:46:35.317Z,16.33
2023-02-13T02:49:27.102Z,16.55
2023-02-13T02:52:05.415Z,15.57
2023-02-13T02:55:09.541Z,15.95
2023-02-13T02:58:17.038Z,21.60
2023-02-13T03:01:05.807Z,16.77
2023-02-13T03:03:53.859Z,12.15
2023-02-13T03:06:29.028Z,14.48
2023-02-13T03:09:20.779Z,11.45
2023-02-13T03:12:11.717Z,16.02
2023-02-13T03:14:40.874Z,19.20
2023-02-13T03:17:30.673Z,15.02
2023-02-13T03:20:46.239Z,14.15
2023-02-13T03:23:24.089Z,18.83
2023-02-13T03:26:15.815Z,13.98
2023-02-13T03:29:10.992Z,14.30
2023-02-13T03:31:50.968Z,16.00
2023-02-13T03:34:25.556Z,17.40
2023-02-13T03:37:20.299Z,15.80
2023-02-13T03:40:02.506Z,18.02
2023-02-13T03:42:39.699Z,16.05
2023-02-13T03:45:33.337Z,17.10
2023-02-13T03:48:27.311Z,16.75
2023-02-13T03:50:57.040Z,17.10
2023-02-13T03:53:29.908Z,13.05
2023-02-13T03:56:20.820Z,13.05
2023-02-13T03:59:12.117Z,14.73
2023-02-13T04:01:43.420Z,13.73
2023-02-13T04:04:19.365Z,15.73
2023-02-13T04:06:53.580Z,13.27
2023-02-13T04:09:22.628Z,14.55
2023-02-13T04:12:01.314Z,16.63
2023-02-13T04:14:37.996Z,20.08
2023-02-13T04:17:10.029Z,15.38
2023-02-13T04:19:39.454Z,20.48
2023-02-13T04:22:08.515Z,18.70
2023-02-13T04:24:37.460Z,14.80
2023-02-13T04:27:07.841Z,20.60
2023-02-13T04:29:36.827Z,20.33
2023-02-13T04:32:05.945Z,16.15
2023-02-13T04:34:35.224Z,20.45
2023-02-13T04:37:04.179Z,13.32
2023-02-13T04:39:33.127Z,13.95
2023-02-13T04:42:02.171Z,16.75
2023-02-13T04:44:32.515Z,14.75
2023-02-13T04:47:01.485Z,16.00
2023-02-13T04:49:30.437Z,16.38
2023-02-13T04:51:59.447Z,14.55
2023-02-13T04:54:28.475Z,15.32
2023-02-13T04:56:57.506Z,16.60
2023-02-13T04:59:26.490Z,17.63
2023-02-13T05:01:56.826Z,14.70
2023-02-13T05:04:25.861Z,14.60
2023-02-13T05:06:54.776Z,12.82
2023-02-13T05:09:23.976Z,13.25
2023-02-13T05:11:54.173Z,15.07
2023-02-13T05:14:23.274Z,15.70
2023-02-13T05:16:52.243Z,13.88
2023-02-13T05:19:22.599Z,16.98
2023-02-13T05:22:09.184Z,13.32
2023-02-13T05:24:38.183Z,13.00
2023-02-13T05:27:07.182Z,13.40
2023-02-13T05:29:36.287Z,13.23
2023-02-13T05:32:05.475Z,18.95
2023-02-13T05:34:35.898Z,13.27
2023-02-13T05:37:05.036Z,16.70
2023-02-13T05:39:33.973Z,24.95
2023-02-13T05:42:04.853Z,22.27
2023-02-13T05:44:34.173Z,22.08
2023-02-13T05:47:04.999Z,16.45
2023-02-13T05:49:35.840Z,14.00
2023-02-13T05:52:05.230Z,14.52
2023-02-13T05:54:34.373Z,14.07
2023-02-13T05:57:03.532Z,16.00
2023-02-13T05:59:32.686Z,15.23
2023-02-13T06:02:01.692Z,13.30
2023-02-13T06:04:30.689Z,14.98
2023-02-13T06:07:01.218Z,14.38
2023-02-13T06:09:30.379Z,14.60
2023-02-13T06:11:59.437Z,19.48
2023-02-13T06:14:28.396Z,22.88
2023-02-13T06:16:57.448Z,18.13
2023-02-13T06:19:26.564Z,19.75
2023-02-13T06:21:55.606Z,14.32
2023-02-13T06:24:26.126Z,18.55
2023-02-13T06:26:55.104Z,14.50
2023-02-13T06:29:24.212Z,15.90
2023-02-13T06:31:53.210Z,12.15
2023-02-13T06:34:22.288Z,14.18
2023-02-13T06:36:53.033Z,16.40
2023-02-13T06:39:22.111Z,19.75
2023-02-13T06:41:52.508Z,16.05
2023-02-13T06:44:21.556Z,19.70
2023-02-13T06:46:50.519Z,20.30
2023-02-13T06:49:19.471Z,17.35
2023-02-13T06:51:48.461Z,16.30
2023-02-13T06:54:17.580Z,14.75
2023-02-13T06:56:46.505Z,16.00
2023-02-13T06:59:16.859Z,19.83
2023-02-13T07:01:45.802Z,17.10
2023-02-13T07:04:14.906Z,16.00
2023-02-13T07:06:43.903Z,19.50
2023-02-13T07:09:16.748Z,19.85
2023-02-13T07:11:45.767Z,23.60
2023-02-13T07:14:16.218Z,23.80
2023-02-13T07:16:45.286Z,23.33
2023-02-13T07:19:14.546Z,21.42
2023-02-13T07:21:43.598Z,23.58
2023-02-13T07:24:12.880Z,23.48
2023-02-13T07:26:41.954Z,21.15
2023-02-13T07:29:12.249Z,19.67
2023-02-13T07:31:43.087Z,20.05
2023-02-13T07:34:12.119Z,22.15
2023-02-13T07:36:41.174Z,22.25
2023-02-13T07:39:10.558Z,22.05
2023-02-13T07:41:39.600Z,15.90
2023-02-13T07:44:09.722Z,14.65
2023-02-13T07:46:38.974Z,20.08
2023-02-13T07:49:09.457Z,16.83
2023-02-13T07:51:38.493Z,17.40
2023-02-13T07:54:07.660Z,17.45
2023-02-13T07:56:36.666Z,16.58
2023-02-13T07:59:07.586Z,21.77
2023-02-13T08:01:36.986Z,16.35
2023-02-13T08:04:06.455Z,17.33
2023-02-13T08:06:36.942Z,18.55
2023-02-13T08:09:23.595Z,15.20
2023-02-13T08:11:57.114Z,13.05
2023-02-13T08:14:28.465Z,17.20
2023-02-13T08:16:57.743Z,18.33
2023-02-13T08:19:26.796Z,16.30
2023-02-13T08:21:57.412Z,12.63
2023-02-13T08:24:26.567Z,16.88
2023-02-13T08:26:56.765Z,12.88
2023-02-13T08:29:25.854Z,15.68
2023-02-13T08:31:55.008Z,14.15
2023-02-13T08:34:24.169Z,14.73
2023-02-13T08:36:53.187Z,11.98
2023-02-13T08:39:23.584Z,12.07
2023-02-13T08:41:52.639Z,11.35
2023-02-13T08:44:22.143Z,11.77
2023-02-13T08:46:51.238Z,10.98
2023-02-13T08:49:20.247Z,9.70
2023-02-13T08:51:49.295Z,11.07
2023-02-13T08:54:18.484Z,13.05
2023-02-13T08:56:48.874Z,9.82
2023-02-13T08:59:17.929Z,11.45
2023-02-13T09:01:47.077Z,14.50
2023-02-13T09:04:18.104Z,14.05
2023-02-13T09:06:47.230Z,18.85
2023-02-13T09:09:17.297Z,16.58
2023-02-13T09:11:46.347Z,17.85
2023-02-13T09:14:16.813Z,9.93
2023-02-13T09:16:45.922Z,15.32
2023-02-13T09:19:14.980Z,11.30
2023-02-13T09:21:44.065Z,10.90
2023-02-13T09:24:13.128Z,11.73
2023-02-13T09:26:42.196Z,10.13
2023-02-13T09:29:11.236Z,18.33
2023-02-13T09:31:41.837Z,13.25
2023-02-13T09:34:10.952Z,9.70
2023-02-13T09:36:39.979Z,13.18
2023-02-13T09:39:09.014Z,17.77
2023-02-13T09:41:41.626Z,12.65
2023-02-13T09:44:32.043Z,14.98
2023-02-13T09:47:06.586Z,9.25
2023-02-13T09:49:41.415Z,15.55
2023-02-13T09:52:11.334Z,11.00
2023-02-13T09:54:40.609Z,10.90
2023-02-13T09:57:20.080Z,15.13
2023-02-13T10:00:03.814Z,9.77
2023-02-13T10:02:54.635Z,12.77
2023-02-13T10:05:51.154Z,19.13
2023-02-13T10:08:31.249Z,12.38
2023-02-13T10:11:09.140Z,12.40
2023-02-13T10:13:57.763Z,10.00
2023-02-13T10:16:31.783Z,6.00
2023-02-13T10:19:10.151Z,8.82
2023-02-13T10:21:48.579Z,10.05
2023-02-13T10:24:32.743Z,7.60
2023-02-13T10:27:10.522Z,8.10
2023-02-13T10:30:03.783Z,8.20
2023-02-13T10:32:45.200Z,9.38
2023-02-13T10:35:34.266Z,9.77
2023-02-13T10:38:15.166Z,11.07
2023-02-13T10:41:01.160Z,7.93
2023-02-13T10:43:36.293Z,16.50
2023-02-13T10:46:21.103Z,12.55
2023-02-13T10:49:09.698Z,11.30
2023-02-13T10:51:47.042Z,10.55
2023-02-13T10:54:34.258Z,11.90
2023-02-13T10:57:16.289Z,8.13
2023-02-13T11:00:00.641Z,10.57
2023-02-13T11:02:32.973Z,9.48
2023-02-13T11:05:08.763Z,10.05
2023-02-13T11:07:39.699Z,10.80
2023-02-13T11:10:19.634Z,10.45
2023-02-13T11:12:49.541Z,13.75
2023-02-13T11:15:26.840Z,7.28
2023-02-13T11:17:58.621Z,11.13
2023-02-13T11:20:35.442Z,8.15
2023-02-13T11:23:36.356Z,9.25
2023-02-13T11:26:10.032Z,12.68
2023-02-13T11:28:48.025Z,12.75
2023-02-13T11:31:26.471Z,10.13
2023-02-13T11:33:58.538Z,7.97
2023-02-13T11:36:31.342Z,6.97
2023-02-13T11:39:09.161Z,8.82
2023-02-13T11:41:43.701Z,8.27
2023-02-13T11:44:26.264Z,13.15
2023-02-13T11:46:57.398Z,9.23
2023-02-13T11:53:52.458Z,8.32
2023-02-13T11:56:22.860Z,9.18
2023-02-13T11:59:05.495Z,8.88
2023-02-13T12:01:34.513Z,11.23
2023-02-13T12:04:08.482Z,13.13
2023-02-13T12:06:40.884Z,11.70
2023-02-13T12:09:16.614Z,10.63
2023-02-13T12:11:50.601Z,12.10
2023-02-13T12:14:23.735Z,11.00
2023-02-13T12:16:57.708Z,11.27
2023-02-13T12:19:34.748Z,9.02
2023-02-13T12:22:19.682Z,9.57
2023-02-13T12:25:25.471Z,9.02
2023-02-13T12:28:11.790Z,10.80
2023-02-13T12:31:25.179Z,8.32
2023-02-13T12:34:45.399Z,11.00
2023-02-13T12:37:24.095Z,8.73
2023-02-13T12:40:15.821Z,11.20
2023-02-13T12:42:52.419Z,10.52
2023-02-13T12:45:39.067Z,12.03
2023-02-13T12:48:32.517Z,9.20
2023-02-13T12:51:18.216Z,8.50
2023-02-13T12:54:17.652Z,7.47
2023-02-13T12:56:58.325Z,13.57
2023-02-13T12:59:44.741Z,13.48
2023-02-13T13:03:08.430Z,10.43
2023-02-13T13:06:11.814Z,8.88
2023-02-13T13:09:16.135Z,11.20
2023-02-13T13:12:08.272Z,11.00
2023-02-13T13:14:43.913Z,10.73
2023-02-13T13:17:26.073Z,10.60
2023-02-13T13:20:23.131Z,10.75
2023-02-13T13:22:58.236Z,10.32
2023-02-13T13:25:34.898Z,10.15
2023-02-13T13:28:13.033Z,16.50
2023-02-13T13:30:44.390Z,10.20
2023-02-13T13:33:20.210Z,9.60
2023-02-13T13:36:03.412Z,12.45
2023-02-13T13:38:51.831Z,7.53
2023-02-13T13:41:31.610Z,9.52
2023-02-13T13:44:18.240Z,9.30
2023-02-13T13:46:58.232Z,9.65
2023-02-13T13:49:44.799Z,9.15
2023-02-13T13:52:26.498Z,9.90
2023-02-13T13:54:57.104Z,8.70
2023-02-13T13:57:27.087Z,9.13
2023-02-13T14:00:24.628Z,9.20
2023-02-13T14:03:25.797Z,11.57
2023-02-13T14:06:06.024Z,9.20
2023-02-13T14:09:03.348Z,8.88
2023-02-13T14:11:36.855Z,8.52
2023-02-13T14:14:45.575Z,9.95
2023-02-13T14:17:17.468Z,7.70
2023-02-13T14:19:53.414Z,9.15
2023-02-13T14:22:37.800Z,12.15
2023-02-13T14:25:24.161Z,11.80
2023-02-13T14:27:59.282Z,9.77
2023-02-13T14:30:32.841Z,20.80
2023-02-13T14:33:06.049Z,9.18
2023-02-13T14:35:38.435Z,10.55
2023-02-13T14:38:22.898Z,7.85
2023-02-13T14:40:58.027Z,8.82
2023-02-13T14:43:52.651Z,6.75
2023-02-13T14:46:35.837Z,6.43
2023-02-13T14:49:13.372Z,7.25
2023-02-13T14:51:49.447Z,7.30
2023-02-13T14:54:28.620Z,6.88
2023-02-13T14:57:10.084Z,6.65
2023-02-13T14:59:46.976Z,8.50
2023-02-13T15:02:24.904Z,9.23
2023-02-13T15:04:59.670Z,7.75
2023-02-13T15:07:35.862Z,9.50
2023-02-13T15:10:24.756Z,8.05
2023-02-13T15:13:01.024Z,12.95
2023-02-13T15:15:34.420Z,7.73
2023-02-13T15:18:08.615Z,7.22
2023-02-13T15:20:43.281Z,8.90
2023-02-13T15:23:23.031Z,7.45
2023-02-13T15:25:59.399Z,9.45
2023-02-13T15:28:30.711Z,8.85
2023-02-13T15:31:06.132Z,8.77
2023-02-13T15:33:44.988Z,10.55
2023-02-13T15:36:19.727Z,8.70
2023-02-13T15:38:48.797Z,8.15
2023-02-13T15:41:24.100Z,15.35
2023-02-13T15:43:59.071Z,10.60
2023-02-13T15:46:31.366Z,10.50
2023-02-13T15:49:06.099Z,10.00
2023-02-13T15:51:35.846Z,12.82
2023-02-13T15:54:08.292Z,10.63
2023-02-13T15:56:38.999Z,14.15
2023-02-13T15:59:11.565Z,13.30
2023-02-13T16:01:44.394Z,14.10
2023-02-13T16:04:16.969Z,12.90
2023-02-13T16:06:48.089Z,16.35
2023-02-13T16:09:27.587Z,12.75
2023-02-13T16:12:02.960Z,25.40
2023-02-13T16:14:37.008Z,16.52
2023-02-13T16:17:08.494Z,12.27
2023-02-13T16:19:46.161Z,17.00
2023-02-13T16:22:29.105Z,17.33
2023-02-13T16:25:16.169Z,19.40
2023-02-13T16:27:47.994Z,16.02
2023-02-13T16:30:37.368Z,13.80
2023-02-13T16:33:25.214Z,12.77
2023-02-13T16:35:56.782Z,14.63
2023-02-13T16:38:36.287Z,14.55
2023-02-13T16:41:08.044Z,22.15
2023-02-13T16:43:45.424Z,12.40
2023-02-13T16:46:23.728Z,16.85
2023-02-13T16:49:19.154Z,19.25
2023-02-13T16:51:56.137Z,17.45
2023-02-13T16:54:35.410Z,19.90
2023-02-13T16:57:18.920Z,21.25
2023-02-13T17:00:09.865Z,21.33
2023-02-13T17:02:41.727Z,16.45
2023-02-13T17:05:23.045Z,22.55
2023-02-13T17:07:54.589Z,24.75
2023-02-13T17:10:27.450Z,24.73
2023-02-13T17:12:59.647Z,20.13
2023-02-13T17:15:31.802Z,15.43
2023-02-13T17:18:02.239Z,23.13
2023-02-13T17:20:35.421Z,17.52
2023-02-13T17:23:07.400Z,21.75
2023-02-13T17:25:38.575Z,19.50
2023-02-13T17:28:15.548Z,19.15
2023-02-13T17:30:46.161Z,21.25
2023-02-13T17:33:22.139Z,21.08
2023-02-13T17:35:51.663Z,17.17
2023-02-13T17:38:20.842Z,19.90
2023-02-13T17:40:50.395Z,24.58
2023-02-13T17:43:21.003Z,22.08
2023-02-13T17:45:50.937Z,19.90
2023-02-13T17:48:22.099Z,18.23
2023-02-13T17:50:52.581Z,25.50
2023-02-13T17:53:25.859Z,25.27
2023-02-13T17:55:55.184Z,21.25
2023-02-13T17:58:24.326Z,16.02
2023-02-13T18:00:53.613Z,20.10
2023-02-13T18:03:24.155Z,22.35
2023-02-13T18:05:53.143Z,26.77
2023-02-13T18:08:22.403Z,18.15
2023-02-13T18:10:51.547Z,14.80
2023-02-13T18:13:21.345Z,21.23
2023-02-13T18:15:50.598Z,13.70
2023-02-13T18:18:19.573Z,14.18
2023-02-13T18:20:57.445Z,9.10
2023-02-13T18:23:26.798Z,13.70
2023-02-13T18:26:03.958Z,13.90
2023-02-13T18:28:33.032Z,14.00
2023-02-13T18:31:02.816Z,14.02
2023-02-13T18:33:32.108Z,13.85
2023-02-13T18:36:03.988Z,16.88
2023-02-13T18:38:33.612Z,21.30
2023-02-13T18:41:03.713Z,18.85
2023-02-13T18:43:32.814Z,19.48
2023-02-13T18:46:02.234Z,25.52
2023-02-13T18:48:32.719Z,30.83
2023-02-13T18:51:03.342Z,28.73
2023-02-13T18:53:32.497Z,32.75
2023-02-13T18:56:02.968Z,25.92
2023-02-13T18:58:33.053Z,27.92
2023-02-13T19:01:08.479Z,27.48
2023-02-13T19:03:38.770Z,22.70
2023-02-13T19:06:14.035Z,26.10
2023-02-13T19:08:43.178Z,28.08
2023-02-13T19:11:15.444Z,22.10
2023-02-13T19:13:45.938Z,28.13
2023-02-13T19:16:18.127Z,30.35
2023-02-13T19:18:53.088Z,40.28
2023-02-13T19:21:25.929Z,31.13
2023-02-13T19:23:55.783Z,33.20
2023-02-13T19:26:27.859Z,31.15
2023-02-13T19:28:59.352Z,30.33
2023-02-13T19:31:31.169Z,25.27
2023-02-13T19:34:00.690Z,23.88
2023-02-13T19:36:31.298Z,29.10
2023-02-13T19:39:02.781Z,32.95
2023-02-13T19:41:32.964Z,40.33
2023-02-13T19:44:02.158Z,31.98
2023-02-13T19:46:32.798Z,29.15
2023-02-13T19:49:03.143Z,32.05
2023-02-13T19:51:36.237Z,24.00
2023-02-13T19:54:07.828Z,39.53
2023-02-13T19:56:39.096Z,36.97
2023-02-13T19:59:12.284Z,32.90
2023-02-13T20:01:42.917Z,36.70
2023-02-13T20:04:12.713Z,35.25
2023-02-13T20:06:43.090Z,36.80
2023-02-13T20:09:14.768Z,40.80
2023-02-13T20:11:45.470Z,35.72
2023-02-13T20:14:15.449Z,34.88
2023-02-13T20:16:46.389Z,38.38
2023-02-13T20:19:25.249Z,29.95
2023-02-13T20:21:59.181Z,33.47
2023-02-13T20:24:33.351Z,28.50
2023-02-13T20:27:06.691Z,31.63
2023-02-13T20:29:38.438Z,41.10
2023-02-13T20:32:07.850Z,40.45
2023-02-13T20:34:58.204Z,37.22
2023-02-13T20:37:27.385Z,32.50
2023-02-13T20:39:56.356Z,34.78
2023-02-13T20:42:25.722Z,38.53
2023-02-13T20:44:57.327Z,48.50
2023-02-13T20:47:27.105Z,34.92
2023-02-13T20:49:57.471Z,38.60
2023-02-13T20:52:27.986Z,30.67
2023-02-13T20:54:58.582Z,38.53
2023-02-13T20:57:28.083Z,33.55
2023-02-13T20:59:57.102Z,34.58
2023-02-13T21:02:26.286Z,33.90
2023-02-13T21:04:55.286Z,40.13
2023-02-13T21:07:24.336Z,36.80
2023-02-13T21:09:54.668Z,40.80
2023-02-13T21:12:23.650Z,36.88
2023-02-13T21:14:52.648Z,39.92
2023-02-13T21:17:21.755Z,37.00
2023-02-13T21:19:50.840Z,46.00
2023-02-13T21:22:19.852Z,36.42
2023-02-13T21:24:51.441Z,39.92
2023-02-13T21:27:22.449Z,37.33
2023-02-13T21:29:51.459Z,36.50
2023-02-13T21:32:20.627Z,40.50
2023-02-13T21:34:49.655Z,38.35
2023-02-13T21:37:18.580Z,36.80
2023-02-13T21:39:47.546Z,41.08
2023-02-13T21:42:16.926Z,36.65
2023-02-13T21:44:48.904Z,30.63
2023-02-13T21:47:18.387Z,34.63
2023-02-13T21:49:48.755Z,33.05
2023-02-13T21:52:18.322Z,32.05
2023-02-13T21:54:47.306Z,30.35
2023-02-13T21:57:16.352Z,31.00
2023-02-13T21:59:46.685Z,34.88
2023-02-13T22:02:15.753Z,36.80
2023-02-13T22:04:44.936Z,35.97
2023-02-13T22:07:14.404Z,37.10
2023-02-13T22:09:43.390Z,40.70
2023-02-13T22:12:12.340Z,41.83
2023-02-13T22:14:41.413Z,45.83
2023-02-13T22:17:11.751Z,42.83
2023-02-13T22:19:40.764Z,43.78
2023-02-13T22:22:09.879Z,42.20
2023-02-13T22:24:39.027Z,36.60
2023-02-13T22:27:07.993Z,31.45
2023-02-13T22:29:40.726Z,33.25
2023-02-13T22:32:11.197Z,32.03
2023-02-13T22:34:40.365Z,32.42
2023-02-13T22:37:09.480Z,32.45
2023-02-13T22:39:39.698Z,35.03
2023-02-13T22:42:08.701Z,37.00
2023-02-13T22:44:37.769Z,32.20
2023-02-13T22:47:07.414Z,33.72
2023-02-13T22:49:37.855Z,37.05
2023-02-13T22:52:07.626Z,35.30
2023-02-13T22:54:37.739Z,32.50
2023-02-13T22:57:06.900Z,43.60
2023-02-13T22:59:39.876Z,41.50
2023-02-13T23:02:09.209Z,41.22
2023-02-13T23:04:39.742Z,38.45
2023-02-13T23:07:08.845Z,43.08
2023-02-13T23:09:37.816Z,34.30
2023-02-13T23:12:24.962Z,31.10
2023-02-13T23:14:53.966Z,30.40
2023-02-13T23:17:40.651Z,34.15
2023-02-13T23:20:13.415Z,29.43
2023-02-13T23:22:42.426Z,35.78
2023-02-13T23:25:11.751Z,40.70
2023-02-13T23:27:40.855Z,41.15
2023-02-13T23:30:11.989Z,41.90
2023-02-13T23:32:41.096Z,34.63
2023-02-13T23:35:11.794Z,34.33
2023-02-13T23:37:40.783Z,34.67
2023-02-13T23:40:13.306Z,34.30
2023-02-13T23:42:43.191Z,30.70
2023-02-13T23:45:12.670Z,31.63
2023-02-13T23:47:41.651Z,27.67
2023-02-13T23:50:12.401Z,33.25
2023-02-13T23:52:41.375Z,30.52
2023-02-13T23:55:10.437Z,29.08
2023-02-13T23:57:39.395Z,31.08
